createdAt,value
2018-12-16T00:00:13.209Z,16.70
2018-12-16T00:02:46.953Z,14.77
2018-12-16T00:05:22.662Z,16.07
2018-12-16T00:07:52.509Z,15.10
2018-12-16T00:10:20.638Z,15.00
2018-12-16T00:12:48.750Z,24.20
2018-12-16T00:15:20.374Z,14.90
2018-12-16T00:17:48.493Z,16.37
2018-12-16T00:20:16.612Z,15.70
2018-12-16T00:22:44.810Z,17.23
2018-12-16T00:25:16.110Z,15.77
2018-12-16T00:27:44.233Z,13.30
2018-12-16T00:30:18.938Z,16.40
2018-12-16T00:32:47.050Z,15.73
2018-12-16T00:35:23.091Z,16.70
2018-12-16T00:37:56.926Z,14.70
2018-12-16T00:40:28.285Z,13.87
2018-12-16T00:42:56.433Z,15.50
2018-12-16T00:45:36.584Z,15.27
2018-12-16T00:48:11.090Z,15.50
2018-12-16T00:50:51.162Z,12.80
2018-12-16T00:53:31.806Z,14.77
2018-12-16T00:56:06.141Z,15.90
2018-12-16T00:58:35.725Z,13.37
2018-12-16T01:01:09.990Z,16.30
2018-12-16T01:03:43.754Z,15.87
2018-12-16T01:06:21.572Z,13.60
2018-12-16T01:09:04.472Z,14.13
2018-12-16T01:11:35.945Z,15.90
2018-12-16T01:14:10.423Z,12.60
2018-12-16T01:16:44.412Z,16.60
2018-12-16T01:19:22.402Z,14.23
2018-12-16T01:21:57.409Z,13.20
2018-12-16T01:24:35.364Z,13.60
2018-12-16T01:27:11.346Z,15.83
2018-12-16T01:29:43.006Z,15.10
2018-12-16T01:32:20.597Z,14.13
2018-12-16T01:34:54.522Z,13.80
2018-12-16T01:37:25.982Z,16.40
2018-12-16T01:39:54.106Z,13.37
2018-12-16T01:42:22.218Z,14.47
2018-12-16T01:44:50.353Z,13.87
2018-12-16T01:47:22.396Z,15.27
2018-12-16T01:49:50.573Z,16.03
2018-12-16T01:52:18.722Z,15.87
2018-12-16T01:54:46.874Z,16.33
2018-12-16T01:57:18.053Z,14.03
2018-12-16T01:59:46.187Z,13.33
2018-12-16T02:02:14.298Z,13.37
2018-12-16T02:04:42.445Z,15.03
2018-12-16T02:07:13.832Z,14.43
2018-12-16T02:09:41.957Z,17.00
2018-12-16T02:12:10.071Z,14.23
2018-12-16T02:14:38.213Z,14.03
2018-12-16T02:17:10.190Z,13.03
2018-12-16T02:19:38.341Z,15.83
2018-12-16T02:22:06.461Z,15.53
2018-12-16T02:24:34.619Z,14.23
2018-12-16T02:27:06.582Z,15.00
2018-12-16T02:29:34.726Z,13.50
2018-12-16T02:32:02.890Z,15.23
2018-12-16T02:34:31.042Z,17.87
2018-12-16T02:37:05.507Z,16.47
2018-12-16T02:39:33.779Z,13.10
2018-12-16T02:42:02.064Z,16.73
2018-12-16T02:44:30.351Z,17.90
2018-12-16T02:47:07.952Z,15.70
2018-12-16T02:49:39.914Z,14.93
2018-12-16T02:52:08.096Z,13.17
2018-12-16T02:54:36.375Z,14.90
2018-12-16T02:57:08.350Z,16.53
2018-12-16T02:59:36.522Z,14.10
2018-12-16T03:02:04.634Z,17.53
2018-12-16T03:04:32.789Z,16.10
2018-12-16T03:07:04.867Z,17.00
2018-12-16T03:09:33.070Z,16.23
2018-12-16T03:12:01.282Z,13.40
2018-12-16T03:14:29.510Z,18.83
2018-12-16T03:17:01.421Z,17.07
2018-12-16T03:19:29.580Z,17.33
2018-12-16T03:21:57.705Z,15.63
2018-12-16T03:24:25.664Z,17.67
2018-12-16T03:26:56.835Z,15.77
2018-12-16T03:29:24.962Z,17.50
2018-12-16T03:31:53.147Z,19.13
2018-12-16T03:34:21.527Z,16.87
2018-12-16T03:36:53.399Z,16.60
2018-12-16T03:39:21.633Z,16.23
2018-12-16T03:41:49.757Z,16.10
2018-12-16T03:44:17.903Z,18.43
2018-12-16T03:46:49.075Z,16.67
2018-12-16T03:49:17.268Z,18.20
2018-12-16T03:51:45.385Z,19.03
2018-12-16T03:54:13.533Z,16.97
2018-12-16T03:56:45.574Z,17.80
2018-12-16T03:59:18.106Z,15.53
2018-12-16T04:01:50.548Z,16.47
2018-12-16T04:04:18.818Z,14.47
2018-12-16T04:06:50.497Z,14.70
2018-12-16T04:09:18.662Z,17.57
2018-12-16T04:11:46.812Z,15.90
2018-12-16T04:14:14.969Z,16.57
2018-12-16T04:16:47.047Z,16.33
2018-12-16T04:19:15.175Z,17.03
2018-12-16T04:21:43.325Z,14.60
2018-12-16T04:24:11.546Z,16.00
2018-12-16T04:26:43.586Z,17.50
2018-12-16T04:29:11.730Z,17.60
2018-12-16T04:31:39.874Z,17.60
2018-12-16T04:34:08.112Z,18.63
2018-12-16T04:36:40.337Z,16.87
2018-12-16T04:39:08.458Z,17.33
2018-12-16T04:41:36.595Z,17.03
2018-12-16T04:44:04.754Z,14.40
2018-12-16T04:46:36.337Z,19.07
2018-12-16T04:49:04.490Z,16.80
2018-12-16T04:51:32.666Z,18.83
2018-12-16T04:54:13.579Z,16.53
2018-12-16T04:56:45.317Z,18.10
2018-12-16T04:59:20.048Z,17.53
2018-12-16T05:01:51.405Z,17.90
2018-12-16T05:04:21.427Z,16.57
2018-12-16T05:06:53.050Z,16.30
2018-12-16T05:09:21.958Z,18.90
2018-12-16T05:11:50.067Z,14.00
2018-12-16T05:14:18.186Z,18.60
2018-12-16T05:16:49.501Z,17.97
2018-12-16T05:19:17.631Z,16.67
2018-12-16T05:21:45.728Z,15.37
2018-12-16T05:24:13.822Z,15.73
2018-12-16T05:26:45.234Z,16.70
2018-12-16T05:29:13.390Z,18.97
2018-12-16T05:31:41.573Z,15.03
2018-12-16T05:34:09.691Z,15.37
2018-12-16T05:36:41.028Z,17.40
2018-12-16T05:39:09.158Z,17.10
2018-12-16T05:41:37.346Z,15.07
2018-12-16T05:44:05.479Z,14.23
2018-12-16T05:46:36.762Z,18.07
2018-12-16T05:49:04.923Z,16.97
2018-12-16T05:51:33.078Z,15.80
2018-12-16T05:54:01.779Z,14.90
2018-12-16T05:56:33.046Z,16.97
2018-12-16T05:59:01.301Z,15.07
2018-12-16T06:01:29.437Z,15.43
2018-12-16T06:03:57.582Z,17.67
2018-12-16T06:06:29.537Z,16.90
2018-12-16T06:08:57.650Z,17.03
2018-12-16T06:11:25.770Z,16.70
2018-12-16T06:13:53.892Z,15.60
2018-12-16T06:16:25.971Z,16.90
2018-12-16T06:18:54.082Z,19.27
2018-12-16T06:21:22.234Z,18.27
2018-12-16T06:23:55.543Z,18.03
2018-12-16T06:26:23.810Z,15.67
2018-12-16T06:28:51.922Z,17.30
2018-12-16T06:31:20.054Z,15.20
2018-12-16T06:33:48.184Z,16.27
2018-12-16T06:36:20.264Z,19.80
2018-12-16T06:38:49.058Z,21.30
2018-12-16T06:41:17.173Z,17.50
2018-12-16T06:43:45.313Z,19.00
2018-12-16T06:46:16.477Z,18.93
2018-12-16T06:48:44.577Z,17.10
2018-12-16T06:51:12.702Z,18.77
2018-12-16T06:53:40.794Z,15.77
2018-12-16T06:56:12.158Z,17.37
2018-12-16T06:58:40.275Z,17.53
2018-12-16T07:01:08.419Z,15.47
2018-12-16T07:03:36.567Z,17.37
2018-12-16T07:06:08.451Z,18.30
2018-12-16T07:08:36.567Z,14.83
2018-12-16T07:11:04.698Z,20.10
2018-12-16T07:13:32.831Z,17.07
2018-12-16T07:16:04.497Z,18.40
2018-12-16T07:18:32.594Z,15.60
2018-12-16T07:21:00.730Z,16.57
2018-12-16T07:23:29.315Z,15.03
2018-12-16T07:26:01.109Z,17.10
2018-12-16T07:28:29.234Z,15.90
2018-12-16T07:30:57.445Z,17.83
2018-12-16T07:33:25.586Z,17.70
2018-12-16T07:35:57.813Z,16.67
2018-12-16T07:38:26.010Z,18.53
2018-12-16T07:40:54.186Z,17.50
2018-12-16T07:43:22.286Z,17.97
2018-12-16T07:45:54.182Z,20.17
2018-12-16T07:48:22.358Z,17.50
2018-12-16T07:50:50.551Z,17.00
2018-12-16T07:53:18.758Z,16.23
2018-12-16T07:55:50.515Z,16.83
2018-12-16T07:58:18.611Z,18.53
2018-12-16T08:00:46.745Z,16.67
2018-12-16T08:03:14.926Z,16.70
2018-12-16T08:05:46.202Z,17.07
2018-12-16T08:08:14.305Z,18.40
2018-12-16T08:10:42.430Z,16.67
2018-12-16T08:13:10.531Z,16.70
2018-12-16T08:15:41.869Z,16.67
2018-12-16T08:18:09.964Z,17.47
2018-12-16T08:20:38.094Z,18.33
2018-12-16T08:23:06.219Z,15.63
2018-12-16T08:25:37.630Z,16.33
2018-12-16T08:28:05.760Z,15.73
2018-12-16T08:30:33.962Z,16.70
2018-12-16T08:33:02.064Z,16.50
2018-12-16T08:35:34.129Z,16.33
2018-12-16T08:38:02.262Z,16.27
2018-12-16T08:40:30.410Z,15.80
2018-12-16T08:42:58.533Z,15.47
2018-12-16T08:45:30.640Z,18.10
2018-12-16T08:47:58.774Z,18.53
2018-12-16T08:50:26.934Z,16.57
2018-12-16T08:52:55.041Z,17.93
2018-12-16T08:55:26.302Z,18.47
2018-12-16T08:57:54.460Z,16.93
2018-12-16T09:00:22.618Z,18.03
2018-12-16T09:02:50.725Z,18.87
2018-12-16T09:05:21.955Z,16.40
2018-12-16T09:07:50.138Z,16.83
2018-12-16T09:10:18.408Z,17.20
2018-12-16T09:12:46.630Z,16.07
2018-12-16T09:15:18.613Z,16.20
2018-12-16T09:17:46.746Z,18.00
2018-12-16T09:20:14.874Z,18.13
2018-12-16T09:22:43.002Z,17.63
2018-12-16T09:25:14.185Z,17.93
2018-12-16T09:27:42.339Z,18.40
2018-12-16T09:30:11.557Z,18.37
2018-12-16T09:32:39.713Z,16.37
2018-12-16T09:35:11.678Z,20.23
2018-12-16T09:37:39.799Z,17.00
2018-12-16T09:40:08.269Z,18.50
2018-12-16T09:42:36.446Z,16.20
2018-12-16T09:45:05.172Z,17.03
2018-12-16T09:47:33.409Z,17.83
2018-12-16T09:50:01.567Z,18.17
2018-12-16T09:52:29.715Z,17.37
2018-12-16T09:54:57.912Z,16.43
2018-12-16T09:57:26.010Z,15.97
2018-12-16T09:59:58.059Z,18.53
2018-12-16T10:02:26.155Z,17.73
2018-12-16T10:04:54.563Z,19.93
2018-12-16T10:07:22.674Z,17.37
2018-12-16T10:09:50.781Z,18.50
2018-12-16T10:12:18.917Z,15.63
2018-12-16T10:14:47.050Z,20.40
2018-12-16T10:17:18.280Z,17.60
2018-12-16T10:19:46.505Z,16.60
2018-12-16T10:22:14.616Z,15.63
2018-12-16T10:24:42.773Z,15.53
2018-12-16T10:27:14.833Z,20.70
2018-12-16T10:29:43.130Z,16.60
2018-12-16T10:32:11.225Z,19.60
2018-12-16T10:34:39.410Z,20.37
2018-12-16T10:37:11.160Z,16.80
2018-12-16T10:39:39.306Z,18.30
2018-12-16T10:42:07.428Z,20.97
2018-12-16T10:44:35.576Z,17.97
2018-12-16T10:47:07.618Z,18.37
2018-12-16T10:49:35.771Z,21.63
2018-12-16T10:52:03.868Z,19.73
2018-12-16T10:54:32.121Z,20.90
2018-12-16T10:57:03.784Z,17.60
2018-12-16T10:59:31.969Z,15.90
2018-12-16T11:02:00.151Z,17.80
2018-12-16T11:04:28.308Z,18.93
2018-12-16T11:07:00.474Z,16.40
2018-12-16T11:09:28.639Z,17.77
2018-12-16T11:11:56.746Z,17.83
2018-12-16T11:14:25.919Z,17.07
2018-12-16T11:16:59.670Z,17.23
2018-12-16T11:19:31.013Z,17.93
2018-12-16T11:22:05.459Z,19.97
2018-12-16T11:24:39.585Z,15.47
2018-12-16T11:27:11.265Z,17.57
2018-12-16T11:29:43.125Z,16.90
2018-12-16T11:32:13.117Z,19.20
2018-12-16T11:34:55.906Z,17.33
2018-12-16T11:37:25.972Z,18.67
2018-12-16T11:40:04.539Z,19.43
2018-12-16T11:42:39.097Z,17.27
2018-12-16T11:45:10.806Z,16.53
2018-12-16T11:47:38.987Z,14.57
2018-12-16T11:50:07.210Z,16.70
2018-12-16T11:52:35.401Z,18.03
2018-12-16T11:55:03.593Z,17.20
2018-12-16T11:57:31.898Z,19.63
2018-12-16T12:00:00.099Z,17.93
2018-12-16T12:02:32.792Z,16.57
2018-12-16T12:04:58.544Z,18.27
2018-12-16T12:07:26.716Z,16.40
2018-12-16T12:09:54.954Z,17.20
2018-12-16T12:12:23.174Z,16.00
2018-12-16T12:14:51.365Z,19.43
2018-12-16T12:17:22.911Z,20.47
2018-12-16T12:19:58.298Z,17.17
2018-12-16T12:22:34.301Z,15.00
2018-12-16T12:25:09.152Z,18.23
2018-12-16T12:27:41.781Z,19.60
2018-12-16T12:30:11.206Z,14.40
2018-12-16T12:32:39.450Z,17.10
2018-12-16T12:35:10.985Z,18.57
2018-12-16T12:37:39.102Z,18.27
2018-12-16T12:40:07.330Z,17.50
2018-12-16T12:42:35.706Z,16.13
2018-12-16T12:45:04.003Z,19.13
2018-12-16T12:47:32.244Z,14.20
2018-12-16T12:50:00.369Z,13.80
2018-12-16T12:52:32.543Z,14.90
2018-12-16T12:55:00.708Z,17.47
2018-12-16T12:57:36.642Z,14.83
2018-12-16T13:00:09.777Z,16.87
2018-12-16T13:02:37.914Z,13.77
2018-12-16T13:05:10.049Z,15.00
2018-12-16T13:07:38.801Z,19.63
2018-12-16T13:10:09.055Z,16.10
2018-12-16T13:12:37.202Z,15.60
2018-12-16T13:15:06.482Z,18.30
2018-12-16T13:17:34.626Z,15.00
2018-12-16T13:20:09.062Z,15.87
2018-12-16T13:22:37.254Z,17.10
2018-12-16T13:26:12.082Z,16.17
2018-12-16T13:28:40.209Z,17.20
2018-12-16T13:31:08.389Z,18.27
2018-12-16T13:33:36.710Z,19.50
2018-12-16T13:36:12.173Z,15.47
2018-12-16T13:38:43.678Z,17.47
2018-12-16T13:43:45.350Z,14.53
2018-12-16T13:46:26.183Z,18.67
2018-12-16T13:49:08.794Z,16.67
2018-12-16T13:51:49.590Z,17.30
2018-12-16T13:54:24.031Z,15.83
2018-12-16T13:56:58.065Z,17.87
2018-12-16T13:59:44.720Z,18.43
2018-12-16T14:02:16.431Z,18.50
2018-12-16T14:04:50.840Z,19.00
2018-12-16T14:07:22.203Z,20.10
2018-12-16T14:10:03.005Z,19.20
2018-12-16T14:12:37.239Z,19.83
2018-12-16T14:15:08.524Z,19.03
2018-12-16T14:17:47.657Z,18.40
2018-12-16T14:20:15.927Z,28.63
2018-12-16T14:22:44.284Z,27.67
2018-12-16T14:25:16.130Z,21.83
2018-12-16T14:27:44.306Z,20.50
2018-12-16T14:30:12.470Z,22.37
2018-12-16T14:32:41.739Z,26.23
2018-12-16T14:35:17.869Z,36.27
2018-12-16T14:37:46.268Z,35.90
2018-12-16T14:40:14.553Z,36.80
2018-12-16T14:42:42.972Z,39.67
2018-12-16T14:45:19.656Z,40.37
2018-12-16T14:47:57.655Z,39.37
2018-12-16T14:50:27.673Z,40.47
2018-12-16T14:53:05.986Z,42.33
2018-12-16T14:55:39.788Z,42.90
2018-12-16T14:58:13.803Z,40.23
2018-12-16T15:00:43.054Z,46.67
2018-12-16T15:03:13.253Z,42.13
2018-12-16T15:05:44.879Z,41.37
2018-12-16T15:08:14.277Z,43.17
2018-12-16T15:10:42.595Z,49.60
2018-12-16T15:13:14.969Z,37.40
2018-12-16T15:15:46.569Z,51.50
2018-12-16T15:18:15.905Z,44.90
2018-12-16T15:20:44.427Z,49.77
2018-12-16T15:23:13.754Z,48.67
2018-12-16T15:25:44.921Z,45.63
2018-12-16T15:28:13.152Z,51.13
2018-12-16T15:30:41.411Z,47.30
2018-12-16T15:33:10.562Z,46.98
2018-12-16T15:35:48.234Z,49.50
2018-12-16T15:38:19.657Z,46.30
2018-12-16T15:40:58.132Z,47.63
2018-12-16T15:43:39.545Z,45.13
2018-12-16T15:46:09.298Z,49.33
2018-12-16T15:48:41.205Z,46.17
2018-12-16T15:51:13.264Z,54.83
2018-12-16T15:54:00.170Z,53.00
2018-12-16T15:56:28.298Z,53.43
2018-12-16T15:59:01.887Z,52.77
2018-12-16T16:01:36.015Z,51.00
2018-12-16T16:04:07.286Z,51.10
2018-12-16T16:06:38.515Z,50.97
2018-12-16T16:09:10.493Z,48.70
2018-12-16T16:11:42.365Z,51.03
2018-12-16T16:14:14.298Z,49.37
2018-12-16T16:16:55.249Z,49.00
2018-12-16T16:19:35.994Z,49.53
2018-12-16T16:22:05.845Z,51.60
2018-12-16T16:24:52.112Z,56.10
2018-12-16T16:27:32.645Z,53.60
2018-12-16T16:30:02.816Z,55.60
2018-12-16T16:32:34.568Z,47.07
2018-12-16T16:35:02.951Z,53.60
2018-12-16T16:37:32.666Z,57.03
2018-12-16T16:40:00.972Z,54.73
2018-12-16T16:42:29.175Z,54.17
2018-12-16T16:44:58.018Z,53.90
2018-12-16T16:47:26.745Z,57.00
2018-12-16T16:49:55.255Z,57.13
2018-12-16T16:52:24.140Z,60.17
2018-12-16T16:54:52.584Z,54.00
2018-12-16T16:57:24.683Z,52.83
2018-12-16T16:59:53.002Z,59.60
2018-12-16T17:02:21.159Z,64.93
2018-12-16T17:04:49.410Z,56.70
2018-12-16T17:07:21.168Z,52.10
2018-12-16T17:09:49.390Z,52.23
2018-12-16T17:12:18.502Z,59.90
2018-12-16T17:14:46.670Z,61.00
2018-12-16T17:17:17.863Z,62.60
2018-12-16T17:19:46.057Z,64.60
2018-12-16T17:22:14.493Z,63.10
2018-12-16T17:24:43.435Z,59.00
2018-12-16T17:27:18.065Z,58.20
2018-12-16T17:29:49.697Z,59.90
2018-12-16T17:32:21.698Z,58.60
2018-12-16T17:34:49.965Z,63.27
2018-12-16T17:37:21.854Z,61.60
2018-12-16T17:39:50.037Z,60.70
2018-12-16T17:42:18.278Z,59.43
2018-12-16T17:44:46.543Z,62.33
2018-12-16T17:47:20.842Z,61.30
2018-12-16T17:49:49.145Z,68.50
2018-12-16T17:52:17.293Z,61.00
2018-12-16T17:54:45.466Z,70.33
2018-12-16T17:57:16.796Z,65.63
2018-12-16T17:59:44.950Z,64.20
2018-12-16T18:02:13.147Z,64.43
2018-12-16T18:04:41.608Z,61.00
2018-12-16T18:07:13.308Z,64.30
2018-12-16T18:09:41.685Z,63.17
2018-12-16T18:12:10.834Z,71.30
2018-12-16T18:14:39.430Z,64.63
2018-12-16T18:17:11.270Z,71.63
2018-12-16T18:19:39.559Z,66.60
2018-12-16T18:22:13.879Z,63.03
2018-12-16T18:24:42.228Z,62.37
2018-12-16T18:27:14.388Z,65.93
2018-12-16T18:29:42.747Z,55.83
2018-12-16T18:32:11.060Z,63.80
2018-12-16T18:34:41.226Z,61.03
2018-12-16T18:37:13.484Z,67.50
2018-12-16T18:39:44.739Z,68.23
2018-12-16T18:42:19.611Z,75.67
2018-12-16T18:44:47.990Z,73.70
2018-12-16T18:47:32.266Z,75.80
2018-12-16T18:50:03.821Z,71.47
2018-12-16T18:52:40.152Z,65.60
2018-12-16T18:58:13.815Z,74.17
2018-12-16T19:03:55.056Z,79.10
2018-12-16T19:06:38.805Z,68.33
2018-12-16T19:09:11.505Z,70.53
2018-12-16T19:11:41.658Z,76.57
2018-12-16T19:14:09.869Z,80.27
2018-12-16T19:16:45.054Z,72.37
2018-12-16T19:19:21.141Z,81.80
2018-12-16T19:21:55.855Z,73.60
2018-12-16T19:24:25.575Z,77.53
2018-12-16T19:26:58.403Z,79.00
2018-12-16T19:29:36.941Z,77.10
2018-12-16T19:32:14.755Z,88.10
2018-12-16T19:34:50.649Z,79.80
2018-12-16T19:37:20.281Z,75.80
2018-12-16T19:39:56.796Z,81.27
2018-12-16T19:42:28.293Z,70.00
2018-12-16T19:45:11.214Z,76.10
2018-12-16T19:47:49.565Z,70.87
2018-12-16T19:50:23.631Z,73.77
2018-12-16T19:52:55.155Z,73.17
2018-12-16T19:55:31.457Z,72.90
2018-12-16T19:58:09.570Z,74.47
2018-12-16T20:00:40.958Z,68.37
2018-12-16T20:03:11.053Z,73.63
2018-12-16T20:05:47.897Z,78.20
2018-12-16T20:08:16.239Z,70.07
2018-12-16T20:10:44.374Z,74.60
2018-12-16T20:13:12.535Z,74.60
2018-12-16T20:15:44.305Z,82.73
2018-12-16T20:18:12.461Z,78.63
2018-12-16T20:20:40.732Z,83.63
2018-12-16T20:23:14.061Z,81.60
2018-12-16T20:25:51.334Z,81.57
2018-12-16T20:28:20.639Z,75.27
2018-12-16T20:30:50.234Z,75.10
2018-12-16T20:33:47.553Z,77.90
2018-12-16T20:36:34.083Z,87.03
2018-12-16T20:39:31.748Z,82.50
2018-12-16T20:42:00.571Z,79.90
2018-12-16T20:44:34.810Z,89.77
2018-12-16T20:47:11.289Z,79.93
2018-12-16T20:49:54.483Z,79.87
2018-12-16T20:52:40.994Z,77.10
2018-12-16T20:55:21.460Z,80.00
2018-12-16T20:57:56.607Z,86.80
2018-12-16T21:00:28.149Z,73.83
2018-12-16T21:03:04.612Z,78.33
2018-12-16T21:05:37.638Z,71.80
2018-12-16T21:08:06.210Z,75.73
2018-12-16T21:10:34.876Z,77.13
2018-12-16T21:13:12.486Z,75.60
2018-12-16T21:15:54.190Z,87.40
2018-12-16T21:18:27.047Z,83.67
2018-12-16T21:21:01.782Z,80.73
2018-12-16T21:23:39.827Z,87.70
2018-12-16T21:26:12.542Z,83.33
2018-12-16T21:28:41.675Z,82.60
2018-12-16T21:31:10.114Z,73.93
2018-12-16T21:33:38.621Z,89.03
2018-12-16T21:36:06.835Z,81.17
2018-12-16T21:38:35.025Z,81.33
2018-12-16T21:41:15.149Z,85.07
2018-12-16T21:43:45.854Z,85.87
2018-12-16T21:46:17.519Z,85.17
2018-12-16T21:48:49.667Z,90.63
2018-12-16T21:51:17.941Z,76.67
2018-12-16T21:53:48.804Z,90.93
2018-12-16T21:56:20.313Z,89.13
2018-12-16T21:58:48.575Z,82.87
2018-12-16T22:01:16.791Z,78.33
2018-12-16T22:03:50.862Z,92.33
2018-12-16T22:06:22.185Z,87.27
2018-12-16T22:08:56.693Z,92.13
2018-12-16T22:11:27.878Z,84.77
2018-12-16T22:13:59.738Z,91.40
2018-12-16T22:16:33.957Z,83.03
2018-12-16T22:19:11.807Z,88.17
2018-12-16T22:21:46.589Z,84.83
2018-12-16T22:24:20.645Z,86.27
2018-12-16T22:26:51.889Z,82.90
2018-12-16T22:29:24.076Z,99.77
2018-12-16T22:31:58.203Z,83.17
2018-12-16T22:34:27.742Z,85.00
2018-12-16T22:36:57.851Z,80.43
2018-12-16T22:39:26.153Z,90.50
2018-12-16T22:41:54.302Z,93.87
2018-12-16T22:44:28.497Z,83.83
2018-12-16T22:46:59.881Z,85.43
2018-12-16T22:49:29.885Z,86.97
2018-12-16T22:52:01.533Z,88.43
2018-12-16T22:54:33.542Z,88.30
2018-12-16T22:57:03.390Z,91.10
2018-12-16T22:59:35.433Z,81.13
2018-12-16T23:02:07.519Z,83.20
2018-12-16T23:04:41.636Z,90.10
2018-12-16T23:07:13.162Z,99.90
2018-12-16T23:09:47.594Z,94.97
2018-12-16T23:12:29.710Z,88.70
2018-12-16T23:15:04.509Z,94.27
2018-12-16T23:17:35.781Z,88.93
2018-12-16T23:20:20.541Z,85.43
2018-12-16T23:22:51.895Z,92.10
2018-12-16T23:25:32.357Z,91.27
2018-12-16T23:28:06.625Z,97.50
2018-12-16T23:30:44.358Z,95.00
2018-12-16T23:33:15.994Z,94.00
2018-12-16T23:35:48.011Z,97.17
2018-12-16T23:38:30.777Z,104.23
2018-12-16T23:41:02.176Z,99.67
2018-12-16T23:43:35.785Z,91.17
2018-12-16T23:46:07.408Z,97.07
2018-12-16T23:48:35.795Z,95.80
2018-12-16T23:51:04.310Z,97.90
2018-12-16T23:53:32.611Z,96.77
2018-12-16T23:56:04.196Z,94.37
2018-12-16T23:58:32.859Z,93.30
